sensor_id;sensor_type;location;lat;lon;timestamp;P1;durP1;ratioP1;P2;durP2;ratioP2
10461;SDS011;5278;42.656;23.374;2022-08-21T00:00:57;10.20;;;7.23;;
10461;SDS011;5278;42.656;23.374;2022-08-21T00:03:26;9.17;;;7.10;;
10461;SDS011;5278;42.656;23.374;2022-08-21T00:05:53;11.50;;;7.73;;
10461;SDS011;5278;42.656;23.374;2022-08-21T00:08:20;9.33;;;8.17;;
10461;SDS011;5278;42.656;23.374;2022-08-21T00:10:47;9.27;;;7.30;;
10461;SDS011;5278;42.656;23.374;2022-08-21T00:13:16;10.37;;;7.30;;
10461;SDS011;5278;42.656;23.374;2022-08-21T00:15:46;11.03;;;8.43;;
10461;SDS011;5278;42.656;23.374;2022-08-21T00:18:13;9.13;;;7.50;;
10461;SDS011;5278;42.656;23.374;2022-08-21T00:20:41;10.37;;;8.60;;
10461;SDS011;5278;42.656;23.374;2022-08-21T00:23:09;11.40;;;8.10;;
10461;SDS011;5278;42.656;23.374;2022-08-21T00:25:37;12.73;;;9.17;;
10461;SDS011;5278;42.656;23.374;2022-08-21T00:28:04;8.67;;;6.83;;
10461;SDS011;5278;42.656;23.374;2022-08-21T00:30:33;12.83;;;8.67;;
10461;SDS011;5278;42.656;23.374;2022-08-21T00:33:01;11.13;;;7.60;;
10461;SDS011;5278;42.656;23.374;2022-08-21T00:35:30;10.53;;;7.87;;
10461;SDS011;5278;42.656;23.374;2022-08-21T00:37:58;11.07;;;7.57;;
10461;SDS011;5278;42.656;23.374;2022-08-21T00:40:28;10.70;;;6.90;;
10461;SDS011;5278;42.656;23.374;2022-08-21T00:42:58;10.77;;;7.67;;
10461;SDS011;5278;42.656;23.374;2022-08-21T00:45:27;10.33;;;6.97;;
10461;SDS011;5278;42.656;23.374;2022-08-21T00:47:56;12.03;;;6.63;;
10461;SDS011;5278;42.656;23.374;2022-08-21T00:50:24;7.60;;;6.73;;
10461;SDS011;5278;42.656;23.374;2022-08-21T00:52:54;13.50;;;7.17;;
10461;SDS011;5278;42.656;23.374;2022-08-21T00:55:22;9.37;;;6.93;;
10461;SDS011;5278;42.656;23.374;2022-08-21T00:57:51;8.50;;;6.43;;
10461;SDS011;5278;42.656;23.374;2022-08-21T01:00:22;9.10;;;5.20;;
10461;SDS011;5278;42.656;23.374;2022-08-21T01:02:50;6.50;;;4.47;;
10461;SDS011;5278;42.656;23.374;2022-08-21T01:05:18;8.13;;;4.70;;
10461;SDS011;5278;42.656;23.374;2022-08-21T01:07:46;8.07;;;4.57;;
10461;SDS011;5278;42.656;23.374;2022-08-21T01:10:13;5.10;;;3.97;;
10461;SDS011;5278;42.656;23.374;2022-08-21T01:12:40;4.97;;;4.40;;
10461;SDS011;5278;42.656;23.374;2022-08-21T01:15:08;7.83;;;4.13;;
10461;SDS011;5278;42.656;23.374;2022-08-21T01:17:36;6.63;;;4.27;;
10461;SDS011;5278;42.656;23.374;2022-08-21T01:20:06;9.03;;;5.27;;
10461;SDS011;5278;42.656;23.374;2022-08-21T01:22:36;9.47;;;5.50;;
10461;SDS011;5278;42.656;23.374;2022-08-21T01:25:03;8.10;;;6.23;;
10461;SDS011;5278;42.656;23.374;2022-08-21T01:27:31;14.50;;;6.87;;
10461;SDS011;5278;42.656;23.374;2022-08-21T01:30:02;10.10;;;6.90;;
10461;SDS011;5278;42.656;23.374;2022-08-21T01:32:35;9.63;;;7.10;;
10461;SDS011;5278;42.656;23.374;2022-08-21T01:35:03;10.37;;;7.30;;
10461;SDS011;5278;42.656;23.374;2022-08-21T01:37:32;11.37;;;7.90;;
10461;SDS011;5278;42.656;23.374;2022-08-21T01:40:00;10.20;;;8.03;;
10461;SDS011;5278;42.656;23.374;2022-08-21T01:42:27;12.20;;;8.37;;
10461;SDS011;5278;42.656;23.374;2022-08-21T01:44:54;13.80;;;9.03;;
10461;SDS011;5278;42.656;23.374;2022-08-21T01:47:21;10.63;;;7.47;;
10461;SDS011;5278;42.656;23.374;2022-08-21T01:49:49;11.13;;;8.67;;
10461;SDS011;5278;42.656;23.374;2022-08-21T01:52:16;12.17;;;7.97;;
10461;SDS011;5278;42.656;23.374;2022-08-21T01:54:44;11.57;;;8.87;;
10461;SDS011;5278;42.656;23.374;2022-08-21T01:57:13;15.63;;;9.50;;
10461;SDS011;5278;42.656;23.374;2022-08-21T01:59:40;11.97;;;9.57;;
10461;SDS011;5278;42.656;23.374;2022-08-21T02:02:06;15.00;;;10.57;;
10461;SDS011;5278;42.656;23.374;2022-08-21T02:04:33;18.63;;;10.97;;
10461;SDS011;5278;42.656;23.374;2022-08-21T02:07:00;13.07;;;9.47;;
10461;SDS011;5278;42.656;23.374;2022-08-21T02:09:28;13.60;;;9.87;;
10461;SDS011;5278;42.656;23.374;2022-08-21T02:11:55;14.20;;;10.07;;
10461;SDS011;5278;42.656;23.374;2022-08-21T02:14:24;17.30;;;9.20;;
10461;SDS011;5278;42.656;23.374;2022-08-21T02:16:51;14.03;;;9.87;;
10461;SDS011;5278;42.656;23.374;2022-08-21T02:19:18;11.17;;;9.03;;
10461;SDS011;5278;42.656;23.374;2022-08-21T02:21:44;13.00;;;8.10;;
10461;SDS011;5278;42.656;23.374;2022-08-21T02:24:11;12.17;;;8.40;;
10461;SDS011;5278;42.656;23.374;2022-08-21T02:26:38;13.27;;;8.37;;
10461;SDS011;5278;42.656;23.374;2022-08-21T02:29:05;10.07;;;7.30;;
10461;SDS011;5278;42.656;23.374;2022-08-21T02:31:33;10.67;;;7.00;;
10461;SDS011;5278;42.656;23.374;2022-08-21T02:34:00;10.13;;;7.67;;
10461;SDS011;5278;42.656;23.374;2022-08-21T02:36:27;10.90;;;7.60;;
10461;SDS011;5278;42.656;23.374;2022-08-21T02:38:54;11.37;;;7.80;;
10461;SDS011;5278;42.656;23.374;2022-08-21T02:41:21;11.23;;;8.33;;
10461;SDS011;5278;42.656;23.374;2022-08-21T02:43:48;14.83;;;7.00;;
10461;SDS011;5278;42.656;23.374;2022-08-21T02:46:16;10.57;;;8.20;;
10461;SDS011;5278;42.656;23.374;2022-08-21T02:48:46;9.83;;;7.03;;
10461;SDS011;5278;42.656;23.374;2022-08-21T02:51:14;9.80;;;7.20;;
10461;SDS011;5278;42.656;23.374;2022-08-21T02:53:43;8.60;;;5.90;;
10461;SDS011;5278;42.656;23.374;2022-08-21T02:56:11;7.37;;;5.77;;
10461;SDS011;5278;42.656;23.374;2022-08-21T02:58:41;10.77;;;6.10;;
10461;SDS011;5278;42.656;23.374;2022-08-21T03:01:10;7.53;;;4.93;;
10461;SDS011;5278;42.656;23.374;2022-08-21T03:03:38;8.33;;;5.47;;
10461;SDS011;5278;42.656;23.374;2022-08-21T03:06:08;10.03;;;4.90;;
10461;SDS011;5278;42.656;23.374;2022-08-21T03:08:36;6.93;;;4.07;;
10461;SDS011;5278;42.656;23.374;2022-08-21T03:11:04;6.90;;;4.47;;
10461;SDS011;5278;42.656;23.374;2022-08-21T03:13:32;6.80;;;4.63;;
10461;SDS011;5278;42.656;23.374;2022-08-21T03:15:59;8.50;;;4.17;;
10461;SDS011;5278;42.656;23.374;2022-08-21T03:18:26;6.57;;;3.77;;
10461;SDS011;5278;42.656;23.374;2022-08-21T03:20:53;10.60;;;4.20;;
10461;SDS011;5278;42.656;23.374;2022-08-21T03:23:23;5.80;;;3.83;;
10461;SDS011;5278;42.656;23.374;2022-08-21T03:25:49;6.47;;;4.17;;
10461;SDS011;5278;42.656;23.374;2022-08-21T03:28:17;4.27;;;3.43;;
10461;SDS011;5278;42.656;23.374;2022-08-21T03:30:47;9.43;;;4.00;;
10461;SDS011;5278;42.656;23.374;2022-08-21T03:33:15;6.57;;;3.73;;
10461;SDS011;5278;42.656;23.374;2022-08-21T03:35:43;7.67;;;3.63;;
10461;SDS011;5278;42.656;23.374;2022-08-21T03:38:12;7.77;;;4.27;;
10461;SDS011;5278;42.656;23.374;2022-08-21T03:40:40;6.17;;;4.00;;
10461;SDS011;5278;42.656;23.374;2022-08-21T03:43:07;5.90;;;3.90;;
10461;SDS011;5278;42.656;23.374;2022-08-21T03:45:37;4.47;;;3.93;;
10461;SDS011;5278;42.656;23.374;2022-08-21T03:48:05;6.53;;;3.80;;
10461;SDS011;5278;42.656;23.374;2022-08-21T03:50:34;6.73;;;3.80;;
10461;SDS011;5278;42.656;23.374;2022-08-21T03:53:03;8.73;;;3.93;;
10461;SDS011;5278;42.656;23.374;2022-08-21T03:55:29;7.37;;;4.07;;
10461;SDS011;5278;42.656;23.374;2022-08-21T03:57:58;6.30;;;3.97;;
10461;SDS011;5278;42.656;23.374;2022-08-21T04:00:25;8.93;;;5.53;;
10461;SDS011;5278;42.656;23.374;2022-08-21T04:02:52;7.93;;;5.83;;
10461;SDS011;5278;42.656;23.374;2022-08-21T04:05:19;9.10;;;6.03;;
10461;SDS011;5278;42.656;23.374;2022-08-21T04:07:54;8.20;;;6.33;;
10461;SDS011;5278;42.656;23.374;2022-08-21T04:10:22;9.63;;;6.80;;
10461;SDS011;5278;42.656;23.374;2022-08-21T04:12:50;12.03;;;6.77;;
10461;SDS011;5278;42.656;23.374;2022-08-21T04:15:19;9.57;;;6.37;;
10461;SDS011;5278;42.656;23.374;2022-08-21T04:17:46;7.80;;;5.93;;
10461;SDS011;5278;42.656;23.374;2022-08-21T04:20:14;7.97;;;5.60;;
10461;SDS011;5278;42.656;23.374;2022-08-21T04:22:41;9.53;;;6.43;;
10461;SDS011;5278;42.656;23.374;2022-08-21T04:25:10;9.40;;;6.50;;
10461;SDS011;5278;42.656;23.374;2022-08-21T04:27:37;8.20;;;5.90;;
10461;SDS011;5278;42.656;23.374;2022-08-21T04:30:05;10.97;;;6.03;;
10461;SDS011;5278;42.656;23.374;2022-08-21T04:32:35;8.87;;;6.03;;
10461;SDS011;5278;42.656;23.374;2022-08-21T04:35:03;7.57;;;6.03;;
10461;SDS011;5278;42.656;23.374;2022-08-21T04:37:33;8.43;;;7.00;;
10461;SDS011;5278;42.656;23.374;2022-08-21T04:40:00;11.40;;;7.27;;
10461;SDS011;5278;42.656;23.374;2022-08-21T04:42:27;7.77;;;6.67;;
10461;SDS011;5278;42.656;23.374;2022-08-21T04:44:54;10.50;;;6.40;;
10461;SDS011;5278;42.656;23.374;2022-08-21T04:47:22;7.90;;;6.30;;
10461;SDS011;5278;42.656;23.374;2022-08-21T04:49:50;10.53;;;6.43;;
10461;SDS011;5278;42.656;23.374;2022-08-21T04:52:19;9.83;;;5.90;;
10461;SDS011;5278;42.656;23.374;2022-08-21T04:54:49;8.87;;;5.60;;
10461;SDS011;5278;42.656;23.374;2022-08-21T04:57:18;5.80;;;5.30;;
10461;SDS011;5278;42.656;23.374;2022-08-21T04:59:46;7.40;;;5.70;;
10461;SDS011;5278;42.656;23.374;2022-08-21T05:02:16;6.37;;;4.90;;
10461;SDS011;5278;42.656;23.374;2022-08-21T05:04:45;12.87;;;5.23;;
10461;SDS011;5278;42.656;23.374;2022-08-21T05:07:16;7.47;;;4.97;;
10461;SDS011;5278;42.656;23.374;2022-08-21T05:09:48;7.17;;;4.07;;
10461;SDS011;5278;42.656;23.374;2022-08-21T05:12:16;10.03;;;3.87;;
10461;SDS011;5278;42.656;23.374;2022-08-21T05:14:43;6.37;;;3.50;;
10461;SDS011;5278;42.656;23.374;2022-08-21T05:17:10;5.93;;;3.37;;
10461;SDS011;5278;42.656;23.374;2022-08-21T05:19:37;5.40;;;2.97;;
10461;SDS011;5278;42.656;23.374;2022-08-21T05:22:05;6.50;;;3.77;;
10461;SDS011;5278;42.656;23.374;2022-08-21T05:24:35;5.90;;;4.33;;
10461;SDS011;5278;42.656;23.374;2022-08-21T05:27:03;5.90;;;3.90;;
10461;SDS011;5278;42.656;23.374;2022-08-21T05:29:32;6.87;;;3.90;;
10461;SDS011;5278;42.656;23.374;2022-08-21T05:31:59;7.17;;;4.63;;
10461;SDS011;5278;42.656;23.374;2022-08-21T05:34:26;7.13;;;4.70;;
10461;SDS011;5278;42.656;23.374;2022-08-21T05:36:53;9.07;;;4.57;;
10461;SDS011;5278;42.656;23.374;2022-08-21T05:39:20;6.70;;;4.63;;
10461;SDS011;5278;42.656;23.374;2022-08-21T05:41:48;5.83;;;4.73;;
10461;SDS011;5278;42.656;23.374;2022-08-21T05:44:15;7.73;;;5.13;;
10461;SDS011;5278;42.656;23.374;2022-08-21T05:46:42;8.20;;;5.00;;
10461;SDS011;5278;42.656;23.374;2022-08-21T05:49:09;7.47;;;5.43;;
10461;SDS011;5278;42.656;23.374;2022-08-21T05:51:36;9.60;;;6.50;;
10461;SDS011;5278;42.656;23.374;2022-08-21T05:54:05;8.17;;;5.33;;
10461;SDS011;5278;42.656;23.374;2022-08-21T05:56:32;5.97;;;5.23;;
10461;SDS011;5278;42.656;23.374;2022-08-21T05:59:00;6.40;;;5.30;;
10461;SDS011;5278;42.656;23.374;2022-08-21T06:01:27;6.93;;;5.67;;
10461;SDS011;5278;42.656;23.374;2022-08-21T06:03:54;6.47;;;5.00;;
10461;SDS011;5278;42.656;23.374;2022-08-21T06:06:21;9.93;;;5.93;;
10461;SDS011;5278;42.656;23.374;2022-08-21T06:08:48;9.33;;;5.80;;
10461;SDS011;5278;42.656;23.374;2022-08-21T06:11:15;9.77;;;6.60;;
10461;SDS011;5278;42.656;23.374;2022-08-21T06:13:42;6.60;;;5.83;;
10461;SDS011;5278;42.656;23.374;2022-08-21T06:16:11;7.37;;;6.07;;
10461;SDS011;5278;42.656;23.374;2022-08-21T06:18:39;8.30;;;6.20;;
10461;SDS011;5278;42.656;23.374;2022-08-21T06:21:07;9.07;;;7.40;;
10461;SDS011;5278;42.656;23.374;2022-08-21T06:23:34;11.93;;;6.07;;
10461;SDS011;5278;42.656;23.374;2022-08-21T06:26:01;8.80;;;6.57;;
10461;SDS011;5278;42.656;23.374;2022-08-21T06:28:29;8.60;;;5.73;;
10461;SDS011;5278;42.656;23.374;2022-08-21T06:30:57;7.73;;;5.73;;
10461;SDS011;5278;42.656;23.374;2022-08-21T06:33:26;9.57;;;5.60;;
10461;SDS011;5278;42.656;23.374;2022-08-21T06:35:53;7.47;;;5.40;;
10461;SDS011;5278;42.656;23.374;2022-08-21T06:38:20;9.67;;;5.60;;
10461;SDS011;5278;42.656;23.374;2022-08-21T06:40:46;7.53;;;5.60;;
10461;SDS011;5278;42.656;23.374;2022-08-21T06:43:14;9.77;;;6.07;;
10461;SDS011;5278;42.656;23.374;2022-08-21T06:45:44;7.13;;;5.50;;
10461;SDS011;5278;42.656;23.374;2022-08-21T06:48:11;9.90;;;5.75;;
10461;SDS011;5278;42.656;23.374;2022-08-21T06:50:39;6.63;;;5.43;;
10461;SDS011;5278;42.656;23.374;2022-08-21T06:53:09;6.05;;;4.70;;
10461;SDS011;5278;42.656;23.374;2022-08-21T06:55:38;8.13;;;4.72;;
10461;SDS011;5278;42.656;23.374;2022-08-21T06:58:06;6.80;;;5.80;;
10461;SDS011;5278;42.656;23.374;2022-08-21T07:00:34;9.18;;;5.72;;
10461;SDS011;5278;42.656;23.374;2022-08-21T07:03:01;5.78;;;5.10;;
10461;SDS011;5278;42.656;23.374;2022-08-21T07:05:29;9.40;;;5.03;;
10461;SDS011;5278;42.656;23.374;2022-08-21T07:07:58;6.72;;;4.60;;
10461;SDS011;5278;42.656;23.374;2022-08-21T07:10:25;5.60;;;5.03;;
10461;SDS011;5278;42.656;23.374;2022-08-21T07:12:53;5.65;;;4.95;;
10461;SDS011;5278;42.656;23.374;2022-08-21T07:15:21;7.63;;;4.50;;
10461;SDS011;5278;42.656;23.374;2022-08-21T07:17:48;5.18;;;4.63;;
10461;SDS011;5278;42.656;23.374;2022-08-21T07:20:14;5.90;;;4.63;;
10461;SDS011;5278;42.656;23.374;2022-08-21T07:22:41;5.03;;;4.15;;
10461;SDS011;5278;42.656;23.374;2022-08-21T07:25:13;8.63;;;4.72;;
10461;SDS011;5278;42.656;23.374;2022-08-21T07:27:40;10.55;;;3.88;;
10461;SDS011;5278;42.656;23.374;2022-08-21T07:30:07;7.13;;;4.53;;
10461;SDS011;5278;42.656;23.374;2022-08-21T07:32:35;6.50;;;4.47;;
10461;SDS011;5278;42.656;23.374;2022-08-21T07:35:01;8.55;;;3.80;;
10461;SDS011;5278;42.656;23.374;2022-08-21T07:37:29;5.00;;;4.03;;
10461;SDS011;5278;42.656;23.374;2022-08-21T07:39:57;5.78;;;3.78;;
10461;SDS011;5278;42.656;23.374;2022-08-21T07:42:25;7.30;;;4.40;;
10461;SDS011;5278;42.656;23.374;2022-08-21T07:44:54;7.53;;;5.10;;
10461;SDS011;5278;42.656;23.374;2022-08-21T07:47:21;9.57;;;5.38;;
10461;SDS011;5278;42.656;23.374;2022-08-21T07:49:48;6.57;;;4.93;;
10461;SDS011;5278;42.656;23.374;2022-08-21T07:52:15;8.13;;;4.60;;
10461;SDS011;5278;42.656;23.374;2022-08-21T07:54:42;4.57;;;3.90;;
10461;SDS011;5278;42.656;23.374;2022-08-21T07:57:09;7.10;;;5.20;;
10461;SDS011;5278;42.656;23.374;2022-08-21T07:59:37;5.35;;;4.85;;
10461;SDS011;5278;42.656;23.374;2022-08-21T08:02:04;8.88;;;4.72;;
10461;SDS011;5278;42.656;23.374;2022-08-21T08:04:30;6.55;;;4.60;;
10461;SDS011;5278;42.656;23.374;2022-08-21T08:06:57;6.97;;;4.93;;
10461;SDS011;5278;42.656;23.374;2022-08-21T08:09:24;6.78;;;4.25;;
10461;SDS011;5278;42.656;23.374;2022-08-21T08:11:51;7.18;;;4.95;;
10461;SDS011;5278;42.656;23.374;2022-08-21T08:14:18;8.48;;;5.40;;
10461;SDS011;5278;42.656;23.374;2022-08-21T08:16:46;6.30;;;4.15;;
10461;SDS011;5278;42.656;23.374;2022-08-21T08:19:13;7.53;;;5.00;;
10461;SDS011;5278;42.656;23.374;2022-08-21T08:21:39;5.90;;;4.80;;
10461;SDS011;5278;42.656;23.374;2022-08-21T08:24:07;7.73;;;4.93;;
10461;SDS011;5278;42.656;23.374;2022-08-21T08:26:34;6.23;;;4.53;;
10461;SDS011;5278;42.656;23.374;2022-08-21T08:29:00;8.23;;;5.87;;
10461;SDS011;5278;42.656;23.374;2022-08-21T08:31:27;6.83;;;5.97;;
10461;SDS011;5278;42.656;23.374;2022-08-21T08:33:55;8.27;;;6.07;;
10461;SDS011;5278;42.656;23.374;2022-08-21T08:36:30;9.80;;;6.40;;
10461;SDS011;5278;42.656;23.374;2022-08-21T08:38:58;8.70;;;6.27;;
10461;SDS011;5278;42.656;23.374;2022-08-21T08:41:25;7.87;;;6.57;;
10461;SDS011;5278;42.656;23.374;2022-08-21T08:43:53;9.50;;;6.10;;
10461;SDS011;5278;42.656;23.374;2022-08-21T08:46:26;9.70;;;6.23;;
10461;SDS011;5278;42.656;23.374;2022-08-21T08:49:02;8.73;;;6.50;;
10461;SDS011;5278;42.656;23.374;2022-08-21T08:51:37;9.80;;;6.40;;
10461;SDS011;5278;42.656;23.374;2022-08-21T08:54:10;11.23;;;6.80;;
10461;SDS011;5278;42.656;23.374;2022-08-21T08:56:41;8.33;;;6.00;;
10461;SDS011;5278;42.656;23.374;2022-08-21T08:59:11;7.30;;;6.10;;
10461;SDS011;5278;42.656;23.374;2022-08-21T09:01:42;6.97;;;5.57;;
10461;SDS011;5278;42.656;23.374;2022-08-21T09:04:11;6.27;;;5.17;;
10461;SDS011;5278;42.656;23.374;2022-08-21T09:06:45;9.73;;;5.80;;
10461;SDS011;5278;42.656;23.374;2022-08-21T09:09:25;8.23;;;5.60;;
10461;SDS011;5278;42.656;23.374;2022-08-21T09:12:02;7.03;;;5.87;;
10461;SDS011;5278;42.656;23.374;2022-08-21T09:14:39;10.43;;;6.07;;
10461;SDS011;5278;42.656;23.374;2022-08-21T09:17:19;6.37;;;5.40;;
10461;SDS011;5278;42.656;23.374;2022-08-21T09:20:03;11.83;;;6.83;;
10461;SDS011;5278;42.656;23.374;2022-08-21T09:22:43;8.00;;;5.27;;
10461;SDS011;5278;42.656;23.374;2022-08-21T09:25:24;10.20;;;6.33;;
10461;SDS011;5278;42.656;23.374;2022-08-21T09:27:53;7.73;;;6.20;;
10461;SDS011;5278;42.656;23.374;2022-08-21T09:30:26;7.20;;;5.47;;
10461;SDS011;5278;42.656;23.374;2022-08-21T09:32:55;10.20;;;6.53;;
10461;SDS011;5278;42.656;23.374;2022-08-21T09:35:24;10.23;;;5.73;;
10461;SDS011;5278;42.656;23.374;2022-08-21T09:37:52;6.22;;;5.43;;
10461;SDS011;5278;42.656;23.374;2022-08-21T09:40:23;6.18;;;5.57;;
10461;SDS011;5278;42.656;23.374;2022-08-21T09:42:57;10.00;;;5.75;;
10461;SDS011;5278;42.656;23.374;2022-08-21T09:45:26;8.68;;;5.43;;
10461;SDS011;5278;42.656;23.374;2022-08-21T09:47:54;6.80;;;4.90;;
10461;SDS011;5278;42.656;23.374;2022-08-21T09:50:22;6.20;;;5.13;;
10461;SDS011;5278;42.656;23.374;2022-08-21T09:52:53;7.17;;;5.50;;
10461;SDS011;5278;42.656;23.374;2022-08-21T09:55:28;5.93;;;5.33;;
10461;SDS011;5278;42.656;23.374;2022-08-21T09:58:16;7.50;;;5.77;;
10461;SDS011;5278;42.656;23.374;2022-08-21T10:00:45;7.83;;;5.53;;
10461;SDS011;5278;42.656;23.374;2022-08-21T10:03:22;10.83;;;6.63;;
10461;SDS011;5278;42.656;23.374;2022-08-21T10:05:52;7.00;;;5.00;;
10461;SDS011;5278;42.656;23.374;2022-08-21T10:08:22;6.47;;;5.80;;
10461;SDS011;5278;42.656;23.374;2022-08-21T10:10:52;6.50;;;5.37;;
10461;SDS011;5278;42.656;23.374;2022-08-21T10:13:23;12.57;;;6.60;;
10461;SDS011;5278;42.656;23.374;2022-08-21T10:16:02;11.17;;;5.60;;
10461;SDS011;5278;42.656;23.374;2022-08-21T10:18:38;7.80;;;5.67;;
10461;SDS011;5278;42.656;23.374;2022-08-21T10:21:10;9.70;;;5.93;;
10461;SDS011;5278;42.656;23.374;2022-08-21T10:23:48;7.00;;;6.30;;
10461;SDS011;5278;42.656;23.374;2022-08-21T10:26:28;14.23;;;9.53;;
10461;SDS011;5278;42.656;23.374;2022-08-21T10:29:05;9.80;;;7.60;;
10461;SDS011;5278;42.656;23.374;2022-08-21T10:31:42;12.67;;;7.47;;
10461;SDS011;5278;42.656;23.374;2022-08-21T10:34:29;10.03;;;6.77;;
10461;SDS011;5278;42.656;23.374;2022-08-21T10:37:10;9.67;;;6.57;;
10461;SDS011;5278;42.656;23.374;2022-08-21T10:39:52;7.63;;;5.37;;
10461;SDS011;5278;42.656;23.374;2022-08-21T10:42:31;8.37;;;5.30;;
10461;SDS011;5278;42.656;23.374;2022-08-21T10:45:09;9.17;;;6.70;;
10461;SDS011;5278;42.656;23.374;2022-08-21T10:47:41;10.47;;;6.73;;
10461;SDS011;5278;42.656;23.374;2022-08-21T10:50:12;7.40;;;5.40;;
10461;SDS011;5278;42.656;23.374;2022-08-21T10:52:54;7.00;;;5.40;;
10461;SDS011;5278;42.656;23.374;2022-08-21T10:55:31;8.80;;;5.47;;
10461;SDS011;5278;42.656;23.374;2022-08-21T10:58:02;9.70;;;6.50;;
10461;SDS011;5278;42.656;23.374;2022-08-21T11:00:35;10.43;;;6.03;;
10461;SDS011;5278;42.656;23.374;2022-08-21T11:03:20;8.80;;;5.43;;
10461;SDS011;5278;42.656;23.374;2022-08-21T11:05:54;6.65;;;4.50;;
10461;SDS011;5278;42.656;23.374;2022-08-21T11:08:28;5.80;;;4.35;;
10461;SDS011;5278;42.656;23.374;2022-08-21T11:11:01;5.80;;;4.28;;
10461;SDS011;5278;42.656;23.374;2022-08-21T11:13:33;8.15;;;5.53;;
10461;SDS011;5278;42.656;23.374;2022-08-21T11:16:06;7.65;;;4.88;;
10461;SDS011;5278;42.656;23.374;2022-08-21T11:18:38;7.90;;;5.28;;
10461;SDS011;5278;42.656;23.374;2022-08-21T11:21:19;8.82;;;5.00;;
10461;SDS011;5278;42.656;23.374;2022-08-21T11:23:59;5.35;;;4.32;;
10461;SDS011;5278;42.656;23.374;2022-08-21T11:26:34;8.82;;;4.88;;
10461;SDS011;5278;42.656;23.374;2022-08-21T11:29:08;5.10;;;4.28;;
10461;SDS011;5278;42.656;23.374;2022-08-21T11:31:43;6.88;;;4.40;;
10461;SDS011;5278;42.656;23.374;2022-08-21T11:34:21;4.97;;;4.10;;
10461;SDS011;5278;42.656;23.374;2022-08-21T11:37:07;6.30;;;4.35;;
10461;SDS011;5278;42.656;23.374;2022-08-21T11:39:46;6.30;;;5.05;;
10461;SDS011;5278;42.656;23.374;2022-08-21T11:42:24;6.15;;;4.63;;
10461;SDS011;5278;42.656;23.374;2022-08-21T11:45:10;6.65;;;3.90;;
10461;SDS011;5278;42.656;23.374;2022-08-21T11:47:48;7.05;;;4.93;;
10461;SDS011;5278;42.656;23.374;2022-08-21T11:50:23;7.15;;;4.38;;
10461;SDS011;5278;42.656;23.374;2022-08-21T11:52:54;5.87;;;4.47;;
10461;SDS011;5278;42.656;23.374;2022-08-21T11:55:28;5.73;;;4.83;;
10461;SDS011;5278;42.656;23.374;2022-08-21T11:57:59;6.23;;;4.33;;
10461;SDS011;5278;42.656;23.374;2022-08-21T12:00:33;7.33;;;5.27;;
10461;SDS011;5278;42.656;23.374;2022-08-21T12:03:07;6.10;;;5.17;;
10461;SDS011;5278;42.656;23.374;2022-08-21T12:05:38;7.43;;;5.57;;
10461;SDS011;5278;42.656;23.374;2022-08-21T12:08:11;9.77;;;5.43;;
10461;SDS011;5278;42.656;23.374;2022-08-21T12:10:45;5.63;;;4.93;;
10461;SDS011;5278;42.656;23.374;2022-08-21T12:13:22;6.37;;;4.90;;
10461;SDS011;5278;42.656;23.374;2022-08-21T12:15:50;10.63;;;6.13;;
10461;SDS011;5278;42.656;23.374;2022-08-21T12:18:21;6.47;;;5.13;;
10461;SDS011;5278;42.656;23.374;2022-08-21T12:20:57;5.40;;;4.83;;
10461;SDS011;5278;42.656;23.374;2022-08-21T12:23:31;8.23;;;5.70;;
10461;SDS011;5278;42.656;23.374;2022-08-21T12:26:14;6.70;;;5.10;;
10461;SDS011;5278;42.656;23.374;2022-08-21T12:29:07;5.97;;;5.10;;
10461;SDS011;5278;42.656;23.374;2022-08-21T12:31:50;11.17;;;5.93;;
10461;SDS011;5278;42.656;23.374;2022-08-21T12:34:19;7.00;;;5.13;;
10461;SDS011;5278;42.656;23.374;2022-08-21T12:36:49;7.10;;;5.77;;
10461;SDS011;5278;42.656;23.374;2022-08-21T12:39:22;7.83;;;5.07;;
10461;SDS011;5278;42.656;23.374;2022-08-21T12:41:55;7.80;;;5.80;;
10461;SDS011;5278;42.656;23.374;2022-08-21T12:44:28;10.53;;;5.87;;
10461;SDS011;5278;42.656;23.374;2022-08-21T12:47:03;5.53;;;4.90;;
10461;SDS011;5278;42.656;23.374;2022-08-21T12:49:33;10.77;;;4.73;;
10461;SDS011;5278;42.656;23.374;2022-08-21T12:52:07;7.53;;;5.30;;
10461;SDS011;5278;42.656;23.374;2022-08-21T12:54:38;6.20;;;4.90;;
10461;SDS011;5278;42.656;23.374;2022-08-21T12:57:16;6.83;;;5.00;;
10461;SDS011;5278;42.656;23.374;2022-08-21T12:59:45;11.20;;;5.27;;
10461;SDS011;5278;42.656;23.374;2022-08-21T13:02:15;6.47;;;4.20;;
10461;SDS011;5278;42.656;23.374;2022-08-21T13:04:45;8.20;;;5.13;;
10461;SDS011;5278;42.656;23.374;2022-08-21T13:07:15;8.03;;;5.23;;
10461;SDS011;5278;42.656;23.374;2022-08-21T13:09:46;8.30;;;5.13;;
10461;SDS011;5278;42.656;23.374;2022-08-21T13:12:17;7.47;;;5.13;;
10461;SDS011;5278;42.656;23.374;2022-08-21T13:14:47;5.23;;;4.73;;
10461;SDS011;5278;42.656;23.374;2022-08-21T13:17:16;6.23;;;5.10;;
10461;SDS011;5278;42.656;23.374;2022-08-21T13:19:52;6.60;;;4.63;;
10461;SDS011;5278;42.656;23.374;2022-08-21T13:22:19;6.43;;;4.80;;
10461;SDS011;5278;42.656;23.374;2022-08-21T13:24:46;7.67;;;4.93;;
10461;SDS011;5278;42.656;23.374;2022-08-21T13:27:20;5.47;;;4.97;;
10461;SDS011;5278;42.656;23.374;2022-08-21T13:30:02;6.33;;;4.80;;
10461;SDS011;5278;42.656;23.374;2022-08-21T13:32:33;7.73;;;4.90;;
10461;SDS011;5278;42.656;23.374;2022-08-21T13:35:07;5.47;;;4.63;;
10461;SDS011;5278;42.656;23.374;2022-08-21T13:37:37;7.43;;;4.80;;
10461;SDS011;5278;42.656;23.374;2022-08-21T13:40:07;5.97;;;4.90;;
10461;SDS011;5278;42.656;23.374;2022-08-21T13:42:40;8.23;;;5.50;;
10461;SDS011;5278;42.656;23.374;2022-08-21T13:45:12;8.20;;;4.70;;
10461;SDS011;5278;42.656;23.374;2022-08-21T13:47:42;9.17;;;5.03;;
10461;SDS011;5278;42.656;23.374;2022-08-21T13:50:11;7.80;;;5.00;;
10461;SDS011;5278;42.656;23.374;2022-08-21T13:52:46;10.00;;;6.93;;
10461;SDS011;5278;42.656;23.374;2022-08-21T13:55:16;6.90;;;4.97;;
10461;SDS011;5278;42.656;23.374;2022-08-21T13:57:45;6.47;;;4.60;;
10461;SDS011;5278;42.656;23.374;2022-08-21T14:00:12;7.67;;;4.93;;
10461;SDS011;5278;42.656;23.374;2022-08-21T14:02:42;6.70;;;5.50;;
10461;SDS011;5278;42.656;23.374;2022-08-21T14:05:14;8.30;;;6.10;;
10461;SDS011;5278;42.656;23.374;2022-08-21T14:07:45;6.83;;;4.90;;
10461;SDS011;5278;42.656;23.374;2022-08-21T14:10:14;10.10;;;5.67;;
10461;SDS011;5278;42.656;23.374;2022-08-21T14:12:47;6.63;;;5.70;;
10461;SDS011;5278;42.656;23.374;2022-08-21T14:15:18;5.93;;;5.10;;
10461;SDS011;5278;42.656;23.374;2022-08-21T14:17:50;17.63;;;9.77;;
10461;SDS011;5278;42.656;23.374;2022-08-21T14:20:26;8.10;;;5.50;;
10461;SDS011;5278;42.656;23.374;2022-08-21T14:22:55;7.50;;;5.03;;
10461;SDS011;5278;42.656;23.374;2022-08-21T14:25:30;10.67;;;7.40;;
10461;SDS011;5278;42.656;23.374;2022-08-21T14:28:12;7.67;;;5.10;;
10461;SDS011;5278;42.656;23.374;2022-08-21T14:30:46;12.53;;;6.20;;
10461;SDS011;5278;42.656;23.374;2022-08-21T14:33:16;9.57;;;5.57;;
10461;SDS011;5278;42.656;23.374;2022-08-21T14:35:46;10.13;;;6.17;;
10461;SDS011;5278;42.656;23.374;2022-08-21T14:38:14;9.37;;;5.83;;
10461;SDS011;5278;42.656;23.374;2022-08-21T14:40:43;11.53;;;6.37;;
10461;SDS011;5278;42.656;23.374;2022-08-21T14:43:13;8.27;;;5.53;;
10461;SDS011;5278;42.656;23.374;2022-08-21T14:45:40;7.73;;;5.23;;
10461;SDS011;5278;42.656;23.374;2022-08-21T14:48:09;8.37;;;4.90;;
10461;SDS011;5278;42.656;23.374;2022-08-21T14:50:36;9.57;;;5.47;;
10461;SDS011;5278;42.656;23.374;2022-08-21T14:53:04;7.63;;;5.33;;
10461;SDS011;5278;42.656;23.374;2022-08-21T14:55:31;7.57;;;5.07;;
10461;SDS011;5278;42.656;23.374;2022-08-21T14:58:21;8.07;;;5.23;;
10461;SDS011;5278;42.656;23.374;2022-08-21T15:00:49;7.50;;;4.73;;
10461;SDS011;5278;42.656;23.374;2022-08-21T15:03:17;7.53;;;5.20;;